sensor_id;sensor_type;location;lat;lon;timestamp;pressure;altitude;pressure_sealevel;temperature;humidity
42125;BME280;27787;44.594;11.046;2023-06-01T00:01:40;101142.25;;;20.10;74.63
42125;BME280;27787;44.594;11.046;2023-06-01T00:04:26;101144.94;;;20.10;74.41
42125;BME280;27787;44.594;11.046;2023-06-01T00:07:10;101144.13;;;20.07;74.41
42125;BME280;27787;44.594;11.046;2023-06-01T00:09:54;101144.31;;;19.99;75.50
42125;BME280;27787;44.594;11.046;2023-06-01T00:12:39;101139.09;;;19.94;75.97
42125;BME280;27787;44.594;11.046;2023-06-01T00:15:22;101132.63;;;20.01;76.08
42125;BME280;27787;44.594;11.046;2023-06-01T00:18:06;101135.38;;;20.00;76.58
42125;BME280;27787;44.594;11.046;2023-06-01T00:20:52;101139.06;;;19.96;76.70
42125;BME280;27787;44.594;11.046;2023-06-01T00:23:36;101146.31;;;19.91;76.88
42125;BME280;27787;44.594;11.046;2023-06-01T00:26:20;101141.91;;;19.88;76.67
42125;BME280;27787;44.594;11.046;2023-06-01T00:29:08;101146.28;;;19.92;77.27
42125;BME280;27787;44.594;11.046;2023-06-01T00:31:52;101144.50;;;19.93;77.58
42125;BME280;27787;44.594;11.046;2023-06-01T00:34:37;101142.78;;;19.89;78.41
42125;BME280;27787;44.594;11.046;2023-06-01T00:37:22;101134.66;;;19.93;78.66
42125;BME280;27787;44.594;11.046;2023-06-01T00:40:06;101131.69;;;20.04;78.14
42125;BME280;27787;44.594;11.046;2023-06-01T00:42:50;101129.13;;;19.99;77.91
42125;BME280;27787;44.594;11.046;2023-06-01T00:45:35;101128.41;;;19.93;78.88
42125;BME280;27787;44.594;11.046;2023-06-01T00:48:21;101131.94;;;19.95;78.46
42125;BME280;27787;44.594;11.046;2023-06-01T00:51:07;101124.78;;;19.95;78.44
42125;BME280;27787;44.594;11.046;2023-06-01T00:53:51;101122.97;;;19.96;78.81
42125;BME280;27787;44.594;11.046;2023-06-01T00:56:36;101120.38;;;19.93;78.93
42125;BME280;27787;44.594;11.046;2023-06-01T00:59:20;101123.16;;;19.88;78.98
42125;BME280;27787;44.594;11.046;2023-06-01T01:02:05;101127.84;;;19.80;79.90
42125;BME280;27787;44.594;11.046;2023-06-01T01:04:49;101121.63;;;19.78;79.83
42125;BME280;27787;44.594;11.046;2023-06-01T01:17:02;101123.00;;;19.59;80.93
42125;BME280;27787;44.594;11.046;2023-06-01T01:19:59;101125.75;;;19.56;80.95
42125;BME280;27787;44.594;11.046;2023-06-01T01:23:10;101118.59;;;19.56;81.33
42125;BME280;27787;44.594;11.046;2023-06-01T01:28:54;101126.69;;;19.53;81.32
42125;BME280;27787;44.594;11.046;2023-06-01T01:31:45;101132.09;;;19.50;81.43
42125;BME280;27787;44.594;11.046;2023-06-01T01:34:30;101118.78;;;19.47;81.31
42125;BME280;27787;44.594;11.046;2023-06-01T01:37:14;101129.44;;;19.49;80.67
42125;BME280;27787;44.594;11.046;2023-06-01T01:39:59;101124.09;;;19.49;80.82
42125;BME280;27787;44.594;11.046;2023-06-01T01:42:43;101124.13;;;19.47;79.73
42125;BME280;27787;44.594;11.046;2023-06-01T01:45:28;101125.22;;;19.38;79.88
42125;BME280;27787;44.594;11.046;2023-06-01T01:48:20;101130.69;;;19.34;80.50
42125;BME280;27787;44.594;11.046;2023-06-01T01:51:26;101131.72;;;19.27;80.43
42125;BME280;27787;44.594;11.046;2023-06-01T01:54:12;101127.25;;;19.29;80.85
42125;BME280;27787;44.594;11.046;2023-06-01T01:56:58;101125.41;;;19.31;79.63
42125;BME280;27787;44.594;11.046;2023-06-01T01:59:48;101129.06;;;19.27;79.44
42125;BME280;27787;44.594;11.046;2023-06-01T02:02:32;101122.81;;;19.26;79.91
42125;BME280;27787;44.594;11.046;2023-06-01T02:05:17;101126.44;;;19.24;79.40
42125;BME280;27787;44.594;11.046;2023-06-01T02:08:01;101128.28;;;19.22;78.79
42125;BME280;27787;44.594;11.046;2023-06-01T02:10:46;101132.91;;;19.13;78.88
42125;BME280;27787;44.594;11.046;2023-06-01T02:13:30;101129.53;;;19.05;79.30
42125;BME280;27787;44.594;11.046;2023-06-01T02:16:15;101123.31;;;19.05;79.71
42125;BME280;27787;44.594;11.046;2023-06-01T02:18:59;101126.94;;;19.02;79.80
42125;BME280;27787;44.594;11.046;2023-06-01T02:21:44;101132.28;;;19.02;79.98
42125;BME280;27787;44.594;11.046;2023-06-01T02:24:28;101125.19;;;19.01;79.52
42125;BME280;27787;44.594;11.046;2023-06-01T02:27:13;101122.50;;;19.01;79.82
42125;BME280;27787;44.594;11.046;2023-06-01T02:29:58;101120.75;;;18.99;79.75
42125;BME280;27787;44.594;11.046;2023-06-01T02:32:43;101131.53;;;18.96;79.97
42125;BME280;27787;44.594;11.046;2023-06-01T02:35:32;101119.97;;;18.94;80.16
42125;BME280;27787;44.594;11.046;2023-06-01T02:38:17;101120.03;;;18.92;80.10
42125;BME280;27787;44.594;11.046;2023-06-01T02:41:01;101124.53;;;18.90;80.03
42125;BME280;27787;44.594;11.046;2023-06-01T02:43:46;101120.16;;;18.84;80.26
42125;BME280;27787;44.594;11.046;2023-06-01T02:46:30;101113.16;;;18.79;80.83
42125;BME280;27787;44.594;11.046;2023-06-01T02:49:14;101109.66;;;18.77;80.95
42125;BME280;27787;44.594;11.046;2023-06-01T02:52:00;101120.28;;;18.80;80.89
42125;BME280;27787;44.594;11.046;2023-06-01T02:54:44;101116.88;;;18.72;80.29
42125;BME280;27787;44.594;11.046;2023-06-01T02:57:49;101105.47;;;18.62;81.18
42125;BME280;27787;44.594;11.046;2023-06-01T03:00:33;101106.41;;;18.58;81.12
42125;BME280;27787;44.594;11.046;2023-06-01T03:03:17;101108.34;;;18.51;82.24
42125;BME280;27787;44.594;11.046;2023-06-01T03:06:01;101109.19;;;18.53;82.11
42125;BME280;27787;44.594;11.046;2023-06-01T03:09:09;101102.81;;;18.59;81.66
42125;BME280;27787;44.594;11.046;2023-06-01T03:12:08;101099.28;;;18.58;81.56
42125;BME280;27787;44.594;11.046;2023-06-01T03:14:53;101099.34;;;18.55;81.37
42125;BME280;27787;44.594;11.046;2023-06-01T03:17:38;101098.44;;;18.56;82.09
42125;BME280;27787;44.594;11.046;2023-06-01T03:20:22;101108.22;;;18.57;81.80
42125;BME280;27787;44.594;11.046;2023-06-01T03:23:07;101108.19;;;18.59;81.49
42125;BME280;27787;44.594;11.046;2023-06-01T03:25:50;101105.53;;;18.57;81.33
42125;BME280;27787;44.594;11.046;2023-06-01T03:28:35;101109.19;;;18.53;81.40
42125;BME280;27787;44.594;11.046;2023-06-01T03:31:19;101108.34;;;18.51;81.93
42125;BME280;27787;44.594;11.046;2023-06-01T03:34:04;101107.50;;;18.49;81.71
42125;BME280;27787;44.594;11.046;2023-06-01T03:36:49;101109.25;;;18.49;82.04
42125;BME280;27787;44.594;11.046;2023-06-01T03:39:34;101111.88;;;18.53;81.75
42125;BME280;27787;44.594;11.046;2023-06-01T03:42:21;101118.91;;;18.57;81.52
42125;BME280;27787;44.594;11.046;2023-06-01T03:45:06;101106.41;;;18.58;81.43
42125;BME280;27787;44.594;11.046;2023-06-01T03:47:51;101116.16;;;18.61;80.88
42125;BME280;27787;44.594;11.046;2023-06-01T03:50:36;101110.81;;;18.61;81.05
42125;BME280;27787;44.594;11.046;2023-06-01T03:53:21;101107.22;;;18.62;80.74
42125;BME280;27787;44.594;11.046;2023-06-01T03:56:06;101113.50;;;18.61;80.07
42125;BME280;27787;44.594;11.046;2023-06-01T03:58:54;101102.16;;;18.49;80.51
42125;BME280;27787;44.594;11.046;2023-06-01T04:01:39;101108.69;;;18.33;80.65
42125;BME280;27787;44.594;11.046;2023-06-01T04:04:28;101109.78;;;18.21;81.98
42125;BME280;27787;44.594;11.046;2023-06-01T04:07:13;101121.41;;;18.20;81.91
42125;BME280;27787;44.594;11.046;2023-06-01T04:10:02;101116.88;;;18.25;81.42
42125;BME280;27787;44.594;11.046;2023-06-01T04:12:48;101124.78;;;18.30;81.06
42125;BME280;27787;44.594;11.046;2023-06-01T04:15:33;101116.69;;;18.33;80.86
42125;BME280;27787;44.594;11.046;2023-06-01T04:18:18;101120.22;;;18.37;81.15
42125;BME280;27787;44.594;11.046;2023-06-01T04:21:13;101125.50;;;18.40;81.28
42125;BME280;27787;44.594;11.046;2023-06-01T04:23:58;101116.56;;;18.41;81.62
42125;BME280;27787;44.594;11.046;2023-06-01T04:26:42;101122.72;;;18.44;81.77
42125;BME280;27787;44.594;11.046;2023-06-01T04:29:28;101120.00;;;18.47;81.14
42125;BME280;27787;44.594;11.046;2023-06-01T04:32:12;101115.53;;;18.49;81.45
42125;BME280;27787;44.594;11.046;2023-06-01T04:35:07;101113.66;;;18.53;80.97
42125;BME280;27787;44.594;11.046;2023-06-01T04:37:51;101113.63;;;18.54;81.34
42125;BME280;27787;44.594;11.046;2023-06-01T04:40:36;101111.81;;;18.56;81.18
42125;BME280;27787;44.594;11.046;2023-06-01T04:43:20;101117.06;;;18.60;81.07
42125;BME280;27787;44.594;11.046;2023-06-01T04:46:05;101114.34;;;18.66;81.48
42125;BME280;27787;44.594;11.046;2023-06-01T04:48:51;101116.00;;;18.71;81.11
42125;BME280;27787;44.594;11.046;2023-06-01T04:51:35;101107.00;;;18.74;80.28
42125;BME280;27787;44.594;11.046;2023-06-01T04:54:20;101112.34;;;18.74;80.51
42125;BME280;27787;44.594;11.046;2023-06-01T04:57:05;101114.13;;;18.75;80.67
42125;BME280;27787;44.594;11.046;2023-06-01T04:59:52;101114.03;;;18.79;80.48
42125;BME280;27787;44.594;11.046;2023-06-01T05:02:41;101114.84;;;18.83;80.70
42125;BME280;27787;44.594;11.046;2023-06-01T05:05:28;101118.38;;;18.85;80.19
42125;BME280;27787;44.594;11.046;2023-06-01T05:08:12;101120.97;;;18.90;79.89
42125;BME280;27787;44.594;11.046;2023-06-01T05:10:59;101114.66;;;18.92;79.93
42125;BME280;27787;44.594;11.046;2023-06-01T05:13:44;101109.41;;;18.89;80.00
42125;BME280;27787;44.594;11.046;2023-06-01T05:16:29;101112.06;;;18.89;80.03
42125;BME280;27787;44.594;11.046;2023-06-01T05:19:14;101115.78;;;18.82;79.99
42125;BME280;27787;44.594;11.046;2023-06-01T05:21:59;101113.00;;;18.86;80.47
42125;BME280;27787;44.594;11.046;2023-06-01T05:24:44;101110.38;;;18.83;80.44
42125;BME280;27787;44.594;11.046;2023-06-01T05:27:28;101108.56;;;18.85;81.45
42125;BME280;27787;44.594;11.046;2023-06-01T05:30:13;101110.16;;;18.94;81.46
42125;BME280;27787;44.594;11.046;2023-06-01T05:32:58;101110.94;;;18.99;81.30
42125;BME280;27787;44.594;11.046;2023-06-01T05:35:42;101111.69;;;19.06;80.96
42125;BME280;27787;44.594;11.046;2023-06-01T05:38:30;101120.50;;;19.11;81.21
42125;BME280;27787;44.594;11.046;2023-06-01T05:41:14;101120.44;;;19.12;81.48
42125;BME280;27787;44.594;11.046;2023-06-01T05:43:59;101126.59;;;19.18;81.06
42125;BME280;27787;44.594;11.046;2023-06-01T05:46:45;101121.34;;;19.13;80.94
42125;BME280;27787;44.594;11.046;2023-06-01T05:49:29;101122.25;;;19.12;80.79
42125;BME280;27787;44.594;11.046;2023-06-01T05:52:15;101124.00;;;19.14;80.84
42125;BME280;27787;44.594;11.046;2023-06-01T05:55:01;101119.50;;;19.17;80.85
42125;BME280;27787;44.594;11.046;2023-06-01T05:57:45;101123.88;;;19.19;81.53
42125;BME280;27787;44.594;11.046;2023-06-01T06:00:30;101121.25;;;19.18;81.38
42125;BME280;27787;44.594;11.046;2023-06-01T06:03:15;101128.28;;;19.22;81.97
42125;BME280;27787;44.594;11.046;2023-06-01T06:06:00;101138.84;;;19.29;81.00
42125;BME280;27787;44.594;11.046;2023-06-01T06:08:44;101137.06;;;19.28;81.07
42125;BME280;27787;44.594;11.046;2023-06-01T06:11:28;101125.50;;;19.28;80.24
42125;BME280;27787;44.594;11.046;2023-06-01T06:14:12;101128.25;;;19.23;80.61
42125;BME280;27787;44.594;11.046;2023-06-01T06:16:57;101141.50;;;19.29;80.10
42125;BME280;27787;44.594;11.046;2023-06-01T06:19:41;101134.53;;;19.22;81.27
42125;BME280;27787;44.594;11.046;2023-06-01T06:22:28;101144.31;;;19.23;82.02
42125;BME280;27787;44.594;11.046;2023-06-01T06:25:12;101137.03;;;19.30;81.62
42125;BME280;27787;44.594;11.046;2023-06-01T06:27:56;101136.00;;;19.35;81.67
42125;BME280;27787;44.594;11.046;2023-06-01T06:30:41;101140.28;;;19.44;81.08
42125;BME280;27787;44.594;11.046;2023-06-01T06:33:25;101137.47;;;19.49;80.94
42125;BME280;27787;44.594;11.046;2023-06-01T06:36:09;101136.63;;;19.47;81.04
42125;BME280;27787;44.594;11.046;2023-06-01T06:38:53;101142.84;;;19.49;81.62
42125;BME280;27787;44.594;11.046;2023-06-01T06:41:37;101134.72;;;19.53;80.99
42125;BME280;27787;44.594;11.046;2023-06-01T06:44:22;101131.88;;;19.61;81.40
42125;BME280;27787;44.594;11.046;2023-06-01T06:47:06;101136.22;;;19.66;81.74
42125;BME280;27787;44.594;11.046;2023-06-01T06:49:50;101127.00;;;19.77;81.43
42125;BME280;27787;44.594;11.046;2023-06-01T06:52:35;101133.94;;;19.85;81.72
42125;BME280;27787;44.594;11.046;2023-06-01T06:55:19;101132.06;;;19.89;80.81
42125;BME280;27787;44.594;11.046;2023-06-01T06:58:04;101133.78;;;19.93;80.35
42125;BME280;27787;44.594;11.046;2023-06-01T07:00:48;101129.25;;;19.95;80.87
42125;BME280;27787;44.594;11.046;2023-06-01T07:03:33;101128.19;;;20.00;80.36
42125;BME280;27787;44.594;11.046;2023-06-01T07:06:18;101133.38;;;20.08;80.74
42125;BME280;27787;44.594;11.046;2023-06-01T07:09:01;101132.50;;;20.08;81.45
42125;BME280;27787;44.594;11.046;2023-06-01T07:11:47;101138.69;;;20.10;82.33
42125;BME280;27787;44.594;11.046;2023-06-01T07:14:31;101134.97;;;20.15;81.34
42125;BME280;27787;44.594;11.046;2023-06-01T07:17:15;101131.22;;;20.22;80.81
42125;BME280;27787;44.594;11.046;2023-06-01T07:20:01;101125.66;;;20.28;80.18
42125;BME280;27787;44.594;11.046;2023-06-01T07:22:48;101130.06;;;20.32;78.78
42125;BME280;27787;44.594;11.046;2023-06-01T07:25:33;101128.16;;;20.36;78.74
42125;BME280;27787;44.594;11.046;2023-06-01T07:28:18;101128.81;;;20.46;79.06
42125;BME280;27787;44.594;11.046;2023-06-01T07:31:03;101135.91;;;20.48;78.11
42125;BME280;27787;44.594;11.046;2023-06-01T07:33:47;101124.22;;;20.51;77.83
42125;BME280;27787;44.594;11.046;2023-06-01T07:36:31;101131.13;;;20.59;78.47
42125;BME280;27787;44.594;11.046;2023-06-01T07:39:20;101125.53;;;20.67;77.51
42125;BME280;27787;44.594;11.046;2023-06-01T07:42:05;101125.41;;;20.72;77.28
42125;BME280;27787;44.594;11.046;2023-06-01T07:44:49;101125.31;;;20.75;77.65
42125;BME280;27787;44.594;11.046;2023-06-01T07:47:34;101132.28;;;20.80;77.45
42125;BME280;27787;44.594;11.046;2023-06-01T07:50:19;101132.13;;;20.86;76.85
42125;BME280;27787;44.594;11.046;2023-06-01T07:53:03;101133.91;;;20.87;76.36
42125;BME280;27787;44.594;11.046;2023-06-01T07:55:48;101126.78;;;20.86;74.76
42125;BME280;27787;44.594;11.046;2023-06-01T07:58:33;101132.97;;;20.88;75.91
42125;BME280;27787;44.594;11.046;2023-06-01T08:01:18;101119.50;;;20.90;75.58
42125;BME280;27787;44.594;11.046;2023-06-01T08:04:02;101120.22;;;20.97;76.02
42125;BME280;27787;44.594;11.046;2023-06-01T08:06:47;101117.22;;;21.06;76.39
42125;BME280;27787;44.594;11.046;2023-06-01T08:09:31;101121.44;;;21.14;75.73
42125;BME280;27787;44.594;11.046;2023-06-01T08:12:16;101114.06;;;21.21;74.99
42125;BME280;27787;44.594;11.046;2023-06-01T08:15:00;101110.22;;;21.31;73.24
42125;BME280;27787;44.594;11.046;2023-06-01T08:17:44;101114.75;;;21.29;73.67
42125;BME280;27787;44.594;11.046;2023-06-01T08:20:29;101119.09;;;21.33;72.96
42125;BME280;27787;44.594;11.046;2023-06-01T08:23:14;101104.66;;;21.37;72.30
42125;BME280;27787;44.594;11.046;2023-06-01T08:26:00;101101.88;;;21.40;72.71
42125;BME280;27787;44.594;11.046;2023-06-01T08:28:44;101102.59;;;21.45;72.98
42125;BME280;27787;44.594;11.046;2023-06-01T08:31:35;101103.41;;;21.49;72.67
42125;BME280;27787;44.594;11.046;2023-06-01T08:34:20;101098.44;;;21.63;73.03
42125;BME280;27787;44.594;11.046;2023-06-01T08:37:04;101084.84;;;21.68;73.24
42125;BME280;27787;44.594;11.046;2023-06-01T08:39:49;101105.47;;;21.67;72.68
42125;BME280;27787;44.594;11.046;2023-06-01T08:45:29;101082.22;;;21.66;73.10
42125;BME280;27787;44.594;11.046;2023-06-01T08:48:18;101086.44;;;21.73;70.49
42125;BME280;27787;44.594;11.046;2023-06-01T08:51:03;101079.31;;;21.72;70.11
42125;BME280;27787;44.594;11.046;2023-06-01T08:53:50;101076.50;;;21.77;69.99
42125;BME280;27787;44.594;11.046;2023-06-01T08:56:34;101076.16;;;21.86;69.39
42125;BME280;27787;44.594;11.046;2023-06-01T08:59:18;101084.97;;;21.91;69.82
42125;BME280;27787;44.594;11.046;2023-06-01T09:02:03;101092.34;;;22.11;69.33
42125;BME280;27787;44.594;11.046;2023-06-01T09:04:47;101085.31;;;22.07;66.70
42125;BME280;27787;44.594;11.046;2023-06-01T09:07:31;101082.72;;;22.04;66.54
42125;BME280;27787;44.594;11.046;2023-06-01T09:10:16;101080.16;;;21.99;66.87
42125;BME280;27787;44.594;11.046;2023-06-01T09:13:06;101080.16;;;22.01;67.15
42125;BME280;27787;44.594;11.046;2023-06-01T09:15:51;101092.97;;;22.19;66.99
42125;BME280;27787;44.594;11.046;2023-06-01T09:18:36;101075.97;;;22.19;66.69
42125;BME280;27787;44.594;11.046;2023-06-01T09:21:33;101073.38;;;22.16;68.03
42125;BME280;27787;44.594;11.046;2023-06-01T09:24:19;101069.69;;;22.18;67.64
42125;BME280;27787;44.594;11.046;2023-06-01T09:27:04;101080.22;;;22.24;67.73
42125;BME280;27787;44.594;11.046;2023-06-01T09:29:56;101070.72;;;22.39;65.90
42125;BME280;27787;44.594;11.046;2023-06-01T09:32:41;101076.06;;;22.41;66.74
42125;BME280;27787;44.594;11.046;2023-06-01T09:35:43;101073.41;;;22.39;65.66
42125;BME280;27787;44.594;11.046;2023-06-01T09:38:28;101076.22;;;22.36;65.64
42125;BME280;27787;44.594;11.046;2023-06-01T09:41:12;101074.94;;;22.46;65.76
42125;BME280;27787;44.594;11.046;2023-06-01T09:43:57;101064.06;;;22.49;65.42
42125;BME280;27787;44.594;11.046;2023-06-01T09:47:11;101064.78;;;22.54;64.11
42125;BME280;27787;44.594;11.046;2023-06-01T09:49:56;101054.84;;;22.56;63.24
42125;BME280;27787;44.594;11.046;2023-06-01T09:52:57;101044.91;;;22.58;64.27
42125;BME280;27787;44.594;11.046;2023-06-01T09:56:01;101060.53;;;22.72;62.80
42125;BME280;27787;44.594;11.046;2023-06-01T09:58:46;101045.56;;;22.88;61.38
42125;BME280;27787;44.594;11.046;2023-06-01T10:01:31;101037.69;;;22.82;62.03
42125;BME280;27787;44.594;11.046;2023-06-01T10:04:21;101052.75;;;22.88;60.21
42125;BME280;27787;44.594;11.046;2023-06-01T10:07:07;101043.00;;;22.85;58.42
42125;BME280;27787;44.594;11.046;2023-06-01T10:09:58;101052.59;;;22.92;60.10
42125;BME280;27787;44.594;11.046;2023-06-01T10:12:44;101048.78;;;22.98;57.04
42125;BME280;27787;44.594;11.046;2023-06-01T10:15:28;101045.41;;;22.93;56.48
42125;BME280;27787;44.594;11.046;2023-06-01T10:18:14;101042.50;;;22.98;59.30
42125;BME280;27787;44.594;11.046;2023-06-01T10:20:59;101036.00;;;23.03;59.05
42125;BME280;27787;44.594;11.046;2023-06-01T10:23:43;101034.09;;;23.07;59.90
42125;BME280;27787;44.594;11.046;2023-06-01T10:26:28;101041.03;;;23.12;60.67
42125;BME280;27787;44.594;11.046;2023-06-01T10:29:17;101044.16;;;23.23;61.33
42125;BME280;27787;44.594;11.046;2023-06-01T10:32:02;101036.09;;;23.23;60.82
42125;BME280;27787;44.594;11.046;2023-06-01T10:34:46;101040.31;;;23.29;59.43
42125;BME280;27787;44.594;11.046;2023-06-01T10:37:31;101035.25;;;23.43;57.81
42125;BME280;27787;44.594;11.046;2023-06-01T10:43:03;101023.28;;;23.29;58.79
42125;BME280;27787;44.594;11.046;2023-06-01T10:45:47;101023.19;;;23.32;59.01
42125;BME280;27787;44.594;11.046;2023-06-01T10:48:53;101032.00;;;23.35;58.66
42125;BME280;27787;44.594;11.046;2023-06-01T10:51:38;101016.84;;;23.33;58.26
42125;BME280;27787;44.594;11.046;2023-06-01T10:54:28;101024.22;;;23.28;57.88
42125;BME280;27787;44.594;11.046;2023-06-01T10:57:22;101019.72;;;23.28;56.46
42125;BME280;27787;44.594;11.046;2023-06-01T11:03:04;101009.44;;;23.38;55.96
42125;BME280;27787;44.594;11.046;2023-06-01T11:05:50;101002.97;;;23.42;55.72
42125;BME280;27787;44.594;11.046;2023-06-01T11:11:19;100996.88;;;23.60;57.66
42125;BME280;27787;44.594;11.046;2023-06-01T11:14:09;100997.63;;;23.84;57.06
42125;BME280;27787;44.594;11.046;2023-06-01T11:16:54;100996.84;;;23.80;56.80
42125;BME280;27787;44.594;11.046;2023-06-01T11:19:38;100994.69;;;23.68;56.42
42125;BME280;27787;44.594;11.046;2023-06-01T11:22:24;100997.59;;;23.64;56.72
42125;BME280;27787;44.594;11.046;2023-06-01T11:25:10;100990.13;;;23.70;55.92
42125;BME280;27787;44.594;11.046;2023-06-01T11:27:56;100984.59;;;23.73;54.78
42125;BME280;27787;44.594;11.046;2023-06-01T11:30:40;100980.75;;;23.79;54.71
42125;BME280;27787;44.594;11.046;2023-06-01T11:33:27;100984.19;;;23.82;56.20
42125;BME280;27787;44.594;11.046;2023-06-01T11:36:12;100978.75;;;23.84;56.82
42125;BME280;27787;44.594;11.046;2023-06-01T11:38:58;100975.84;;;23.89;56.24
42125;BME280;27787;44.594;11.046;2023-06-01T11:41:43;100979.81;;;24.00;55.21
42125;BME280;27787;44.594;11.046;2023-06-01T11:44:28;100976.63;;;24.11;52.50
42125;BME280;27787;44.594;11.046;2023-06-01T11:47:13;100967.75;;;24.09;52.57
42125;BME280;27787;44.594;11.046;2023-06-01T11:49:57;100970.56;;;24.06;52.23
42125;BME280;27787;44.594;11.046;2023-06-01T11:52:41;100959.09;;;24.01;52.24
42125;BME280;27787;44.594;11.046;2023-06-01T11:55:26;100959.91;;;24.03;52.78
42125;BME280;27787;44.594;11.046;2023-06-01T11:58:10;100947.88;;;24.30;53.25
42125;BME280;27787;44.594;11.046;2023-06-01T12:00:56;100944.56;;;24.24;53.93
42125;BME280;27787;44.594;11.046;2023-06-01T12:03:50;100944.03;;;24.16;54.97
42125;BME280;27787;44.594;11.046;2023-06-01T12:06:34;100946.09;;;24.10;54.47
42125;BME280;27787;44.594;11.046;2023-06-01T12:09:20;100942.28;;;24.15;53.26
42125;BME280;27787;44.594;11.046;2023-06-01T12:12:04;100941.00;;;24.23;50.10
42125;BME280;27787;44.594;11.046;2023-06-01T12:14:50;100934.66;;;24.24;50.39
42125;BME280;27787;44.594;11.046;2023-06-01T12:17:55;100932.75;;;24.26;50.20
42125;BME280;27787;44.594;11.046;2023-06-01T12:20:42;100927.16;;;24.31;51.12
42125;BME280;27787;44.594;11.046;2023-06-01T12:23:27;100920.03;;;24.30;51.54
42125;BME280;27787;44.594;11.046;2023-06-01T12:26:11;100920.25;;;24.44;51.91
42125;BME280;27787;44.594;11.046;2023-06-01T12:28:55;100910.53;;;24.59;50.34
42125;BME280;27787;44.594;11.046;2023-06-01T12:31:51;100919.94;;;24.69;50.69
42125;BME280;27787;44.594;11.046;2023-06-01T12:34:39;100905.81;;;24.64;50.18
42125;BME280;27787;44.594;11.046;2023-06-01T12:37:23;100908.22;;;24.51;50.95
42125;BME280;27787;44.594;11.046;2023-06-01T12:40:08;100887.50;;;24.52;51.29
42125;BME280;27787;44.594;11.046;2023-06-01T12:42:53;100884.88;;;24.50;52.00
42125;BME280;27787;44.594;11.046;2023-06-01T12:45:38;100887.19;;;24.77;50.77
42125;BME280;27787;44.594;11.046;2023-06-01T12:48:32;100892.28;;;25.00;48.51
42125;BME280;27787;44.594;11.046;2023-06-01T12:51:17;100883.84;;;25.08;48.70
42125;BME280;27787;44.594;11.046;2023-06-01T12:54:02;100874.59;;;25.12;47.28
42125;BME280;27787;44.594;11.046;2023-06-01T12:56:50;100869.88;;;25.17;46.97
42125;BME280;27787;44.594;11.046;2023-06-01T12:59:36;100863.34;;;25.21;47.91
42125;BME280;27787;44.594;11.046;2023-06-01T13:02:20;100862.38;;;25.22;46.41
42125;BME280;27787;44.594;11.046;2023-06-01T13:05:04;100853.75;;;25.15;48.31
42125;BME280;27787;44.594;11.046;2023-06-01T13:07:49;100841.19;;;25.14;48.74
42125;BME280;27787;44.594;11.046;2023-06-01T13:10:34;100841.97;;;25.16;49.93
42125;BME280;27787;44.594;11.046;2023-06-01T13:13:18;100838.16;;;25.20;50.48
42125;BME280;27787;44.594;11.046;2023-06-01T13:16:03;100833.63;;;25.21;50.10
42125;BME280;27787;44.594;11.046;2023-06-01T13:18:47;100837.53;;;25.15;49.96
42125;BME280;27787;44.594;11.046;2023-06-01T13:21:34;100828.47;;;25.16;49.71
42125;BME280;27787;44.594;11.046;2023-06-01T13:24:19;100831.69;;;25.23;50.20
42125;BME280;27787;44.594;11.046;2023-06-01T13:27:03;100829.78;;;25.25;48.92
42125;BME280;27787;44.594;11.046;2023-06-01T13:29:49;100826.94;;;25.28;48.67
42125;BME280;27787;44.594;11.046;2023-06-01T13:32:33;100823.75;;;25.37;49.07
42125;BME280;27787;44.594;11.046;2023-06-01T13:35:17;100820.38;;;25.49;48.05
42125;BME280;27787;44.594;11.046;2023-06-01T13:38:03;100812.25;;;25.67;47.92
42125;BME280;27787;44.594;11.046;2023-06-01T13:40:47;100811.25;;;25.85;48.49
42125;BME280;27787;44.594;11.046;2023-06-01T13:43:31;100811.09;;;26.04;48.15
42125;BME280;27787;44.594;11.046;2023-06-01T13:46:15;100798.56;;;26.19;48.13
42125;BME280;27787;44.594;11.046;2023-06-01T13:48:59;100800.91;;;26.25;48.46
42125;BME280;27787;44.594;11.046;2023-06-01T13:51:44;100797.06;;;26.29;49.35
42125;BME280;27787;44.594;11.046;2023-06-01T13:54:28;100796.38;;;26.41;48.52
42125;BME280;27787;44.594;11.046;2023-06-01T13:57:12;100796.38;;;26.41;48.15
42125;BME280;27787;44.594;11.046;2023-06-01T13:59:56;100781.72;;;26.45;47.42
42125;BME280;27787;44.594;11.046;2023-06-01T14:02:40;100782.84;;;26.57;47.56
42125;BME280;27787;44.594;11.046;2023-06-01T14:05:25;100775.22;;;26.63;47.45
42125;BME280;27787;44.594;11.046;2023-06-01T14:08:09;100766.75;;;26.69;46.93
42125;BME280;27787;44.594;11.046;2023-06-01T14:10:53;100762.97;;;26.72;46.58
42125;BME280;27787;44.594;11.046;2023-06-01T14:13:37;100757.69;;;26.85;44.78
42125;BME280;27787;44.594;11.046;2023-06-01T14:16:22;100752.28;;;26.85;44.80
42125;BME280;27787;44.594;11.046;2023-06-01T14:19:06;100756.53;;;26.89;44.33
42125;BME280;27787;44.594;11.046;2023-06-01T14:21:50;100750.81;;;26.93;45.33
42125;BME280;27787;44.594;11.046;2023-06-01T14:24:34;100748.78;;;27.13;45.22
42125;BME280;27787;44.594;11.046;2023-06-01T14:27:19;100737.94;;;27.27;45.09
42125;BME280;27787;44.594;11.046;2023-06-01T14:30:04;100742.50;;;27.41;45.58
42125;BME280;27787;44.594;11.046;2023-06-01T14:32:48;100738.44;;;27.48;45.34
42125;BME280;27787;44.594;11.046;2023-06-01T14:35:32;100730.22;;;27.49;44.62
42125;BME280;27787;44.594;11.046;2023-06-01T14:38:17;100736.09;;;27.42;45.08
42125;BME280;27787;44.594;11.046;2023-06-01T14:41:01;100727.88;;;27.43;45.06